Search for airport 
image banner adimage banner adimage banner ad
image banner ad

E55 - Ocean Ridge

Located in Gualala, United States

ICAO - E55, IATA -

Data provided by Airmate  

General information

Coordinates: N38°48'6" W123°31'50"
Elevation is 940 feet MSL.
Magnetic variation is 13° East
View others Airports in California

Operational data

Special qualification required
Current time UTC:
Current local time:
Weather at : KUKI - Ukiah Muni ( 46 km )
METAR: KUKI 210956Z AUTO 16004KT 10SM CLR 15/10 A2987 RMK AO2 SLP105 T01500100
TAF: KUKI 210520Z 2106/2206 VRB03KT P6SM SKC FM211500 15010KT P6SM SKC FM212200 15015G21KT P6SM SKC FM220500 14009KT P6SM SCT250
View NOTAMs / SUP AIP / TFR affecting this airport [VIEW]
Communications frequencies: [VIEW]

Runways:

RWY identifierQFULength (ft)Width (ft)SurfaceLDA (ft)
13250050ASPH
31250050ASPH

Airport contact information

Address: Gualala United States

Satellite view of E55